createdAt,value
2017-07-31T00:02:33.308Z,0
2017-07-31T00:02:43.162Z,0
2017-07-31T00:02:53.041Z,0
2017-07-31T00:03:02.618Z,0
2017-07-31T00:03:12.497Z,0
2017-07-31T00:13:24.377Z,0
2017-07-31T00:13:34.565Z,0
2017-07-31T00:13:44.421Z,0
2017-07-31T00:13:54.569Z,0
2017-07-31T00:14:04.733Z,0
2017-07-31T00:14:14.897Z,0
2017-07-31T00:14:25.057Z,0
2017-07-31T00:14:35.208Z,0
2017-07-31T00:14:45.069Z,0
2017-07-31T00:14:54.925Z,0
2017-07-31T00:15:04.798Z,0
2017-07-31T00:15:14.375Z,0
2017-07-31T00:15:24.553Z,0
2017-07-31T00:15:34.713Z,0
2017-07-31T00:15:44.865Z,0
2017-07-31T00:15:55.025Z,0
2017-07-31T00:21:01.173Z,0
2017-07-31T00:21:11.025Z,0
2017-07-31T00:26:17.415Z,0
2017-07-31T00:26:26.705Z,0
2017-07-31T00:26:36.857Z,0
2017-07-31T00:31:54.073Z,0
2017-07-31T00:32:04.229Z,0
2017-07-31T00:32:14.084Z,0
2017-07-31T00:32:23.945Z,0
2017-07-31T00:32:34.104Z,0
2017-07-31T00:32:44.269Z,0
2017-07-31T00:32:54.149Z,0
2017-07-31T00:38:15.652Z,0
2017-07-31T00:38:25.245Z,0
2017-07-31T00:38:35.405Z,0
2017-07-31T00:38:45.577Z,0
2017-07-31T00:38:55.741Z,0
2017-07-31T00:39:05.905Z,0
2017-07-31T00:39:16.053Z,0
2017-07-31T00:39:26.213Z,0
2017-07-31T00:39:36.369Z,0
2017-07-31T00:39:46.529Z,0
2017-07-31T00:39:56.397Z,0
2017-07-31T00:40:06.553Z,0
2017-07-31T00:40:16.721Z,0
2017-07-31T00:40:26.873Z,0
2017-07-31T00:40:36.753Z,0
2017-07-31T00:40:46.621Z,0
2017-07-31T00:40:56.762Z,0
2017-07-31T00:41:06.913Z,0
2017-07-31T00:41:17.065Z,0
2017-07-31T00:41:27.213Z,0
2017-07-31T00:41:36.780Z,0
2017-07-31T00:41:46.360Z,0
2017-07-31T00:41:56.553Z,0
2017-07-31T00:47:07.209Z,0
2017-07-31T00:47:17.353Z,0
2017-07-31T00:47:27.221Z,0
2017-07-31T00:47:37.373Z,0
2017-07-31T00:47:47.229Z,0
2017-07-31T00:47:57.381Z,0
2017-07-31T00:48:07.529Z,0
2017-07-31T00:48:17.676Z,0
2017-07-31T00:48:27.813Z,0
2017-07-31T00:48:37.969Z,0
2017-07-31T00:48:48.117Z,0
2017-07-31T00:48:57.969Z,0
2017-07-31T00:49:07.825Z,0
2017-07-31T00:54:24.864Z,0
2017-07-31T00:59:41.400Z,0
2017-07-31T00:59:50.965Z,0
2017-07-31T01:00:01.120Z,0
2017-07-31T01:00:11.277Z,0
2017-07-31T01:00:21.433Z,0
2017-07-31T01:00:31.585Z,0
2017-07-31T01:00:41.739Z,0
2017-07-31T01:00:51.629Z,0
2017-07-31T01:01:01.781Z,0
2017-07-31T01:01:11.929Z,0
2017-07-31T01:01:22.081Z,0
2017-07-31T01:01:32.233Z,0
2017-07-31T01:01:41.816Z,0
2017-07-31T01:01:51.969Z,0
2017-07-31T01:12:08.876Z,0
2017-07-31T01:17:24.543Z,0
2017-07-31T01:17:34.721Z,0
2017-07-31T01:17:44.584Z,0
2017-07-31T01:17:54.737Z,0
2017-07-31T01:23:05.885Z,0
2017-07-31T01:23:16.036Z,0
2017-07-31T01:23:26.224Z,0
2017-07-31T01:23:36.376Z,0
2017-07-31T01:28:47.428Z,0
2017-07-31T01:28:57.573Z,0
2017-07-31T01:29:07.737Z,0
2017-07-31T01:29:17.900Z,0
2017-07-31T01:29:27.748Z,0
2017-07-31T01:29:37.909Z,0
2017-07-31T01:29:48.053Z,0
2017-07-31T01:29:57.941Z,0
2017-07-31T01:30:07.828Z,0
2017-07-31T01:30:17.989Z,0
2017-07-31T01:30:28.144Z,0
2017-07-31T01:30:38.289Z,0
2017-07-31T01:30:48.436Z,0
2017-07-31T01:30:58.009Z,0
2017-07-31T01:31:07.863Z,0
2017-07-31T01:31:17.450Z,0
2017-07-31T01:31:27.301Z,0
2017-07-31T01:31:36.869Z,0
2017-07-31T01:36:50.196Z,0
2017-07-31T01:37:00.359Z,0
2017-07-31T01:37:10.231Z,0
2017-07-31T01:42:21.461Z,0
2017-07-31T01:42:31.628Z,0
2017-07-31T01:42:41.780Z,0
2017-07-31T01:42:51.653Z,0
2017-07-31T01:43:01.805Z,0
2017-07-31T01:43:11.961Z,0
2017-07-31T01:48:28.312Z,0
2017-07-31T01:48:38.465Z,0
2017-07-31T01:48:48.608Z,0
2017-07-31T01:54:00.741Z,0
2017-07-31T02:04:23.672Z,0
2017-07-31T02:04:33.821Z,0
2017-07-31T02:04:43.969Z,0
2017-07-31T02:04:54.114Z,0
2017-07-31T02:05:04.293Z,0
2017-07-31T02:05:14.165Z,0
2017-07-31T02:05:24.324Z,0
2017-07-31T02:05:34.185Z,0
2017-07-31T02:05:44.056Z,0
2017-07-31T02:05:54.216Z,0
2017-07-31T02:06:04.365Z,0
2017-07-31T02:06:14.512Z,0
2017-07-31T02:06:24.664Z,0
2017-07-31T02:06:34.831Z,0
2017-07-31T02:06:44.414Z,0
2017-07-31T02:06:54.568Z,0
2017-07-31T02:07:04.725Z,0
2017-07-31T02:07:14.868Z,0
2017-07-31T02:07:25.012Z,0
2017-07-31T02:17:36.561Z,0
2017-07-31T02:17:46.439Z,0
2017-07-31T02:17:56.605Z,0
2017-07-31T02:18:06.777Z,0
2017-07-31T02:23:17.929Z,0
2017-07-31T02:23:28.093Z,0
2017-07-31T02:23:38.252Z,0
2017-07-31T02:28:51.116Z,0
2017-07-31T02:29:01.264Z,0
2017-07-31T02:34:07.364Z,0
2017-07-31T02:44:30.293Z,0
2017-07-31T02:44:40.439Z,0
2017-07-31T02:49:56.401Z,0
2017-07-31T02:50:06.569Z,0
2017-07-31T02:50:16.729Z,0
2017-07-31T02:50:26.881Z,0
2017-07-31T02:50:37.045Z,0
2017-07-31T02:50:47.221Z,0
2017-07-31T02:50:57.363Z,0
2017-07-31T02:51:07.509Z,0
2017-07-31T03:11:37.244Z,0
2017-07-31T03:11:47.116Z,0
2017-07-31T03:11:57.260Z,0
2017-07-31T03:12:07.416Z,0
2017-07-31T03:12:17.560Z,0
2017-07-31T03:12:27.141Z,0
2017-07-31T03:12:37.309Z,0
2017-07-31T03:12:47.470Z,0
2017-07-31T03:12:57.621Z,0
2017-07-31T03:13:07.792Z,0
2017-07-31T03:13:17.944Z,0
2017-07-31T03:13:28.080Z,0
2017-07-31T03:13:38.224Z,0
2017-07-31T03:18:55.963Z,4
2017-07-31T03:19:05.864Z,4
2017-07-31T03:19:15.748Z,4
2017-07-31T03:19:25.324Z,4
2017-07-31T03:19:35.473Z,4
2017-07-31T03:19:45.631Z,4
2017-07-31T03:19:55.217Z,4
2017-07-31T03:20:05.081Z,0
2017-07-31T03:20:14.997Z,0
2017-07-31T03:20:25.164Z,0
2017-07-31T03:25:43.360Z,8
2017-07-31T03:25:53.505Z,8
2017-07-31T03:26:03.381Z,8
2017-07-31T03:26:13.529Z,8
2017-07-31T03:31:25.329Z,20
2017-07-31T03:31:35.188Z,24
2017-07-31T03:31:45.362Z,24
2017-07-31T03:31:55.521Z,20
2017-07-31T03:32:05.368Z,24
2017-07-31T03:32:15.236Z,24
2017-07-31T03:32:25.109Z,28
2017-07-31T03:32:34.981Z,24
2017-07-31T03:32:44.849Z,28
2017-07-31T03:32:54.992Z,28
2017-07-31T03:33:04.849Z,28
2017-07-31T03:38:13.076Z,68
2017-07-31T03:38:23.227Z,72
2017-07-31T03:38:32.813Z,72
2017-07-31T03:38:42.380Z,72
2017-07-31T03:43:53.629Z,136
2017-07-31T03:44:03.197Z,140
2017-07-31T03:44:13.345Z,148
2017-07-31T03:49:25.617Z,288
2017-07-31T03:49:35.516Z,300
2017-07-31T03:49:45.668Z,304
2017-07-31T03:54:59.473Z,460
2017-07-31T04:05:21.480Z,896
2017-07-31T04:05:31.629Z,912
2017-07-31T04:05:41.785Z,928
2017-07-31T04:05:51.948Z,940
2017-07-31T04:06:02.096Z,952
2017-07-31T04:06:12.236Z,972
2017-07-31T04:06:22.392Z,984
2017-07-31T04:11:36.081Z,1496
2017-07-31T04:11:45.640Z,1508
2017-07-31T04:11:55.796Z,1524
2017-07-31T04:17:07.065Z,1992
2017-07-31T04:17:17.221Z,1996
2017-07-31T04:17:27.097Z,2000
2017-07-31T04:17:37.258Z,2012
2017-07-31T04:22:48.967Z,2120
2017-07-31T04:22:59.112Z,2124
2017-07-31T04:23:09.252Z,2128
2017-07-31T04:23:19.113Z,2136
2017-07-31T04:28:30.077Z,2456
2017-07-31T04:28:39.944Z,2460
2017-07-31T04:28:50.124Z,2464
2017-07-31T04:29:00.268Z,2464
2017-07-31T04:29:10.124Z,2468
2017-07-31T04:29:20.276Z,2464
2017-07-31T04:29:30.128Z,2464
2017-07-31T04:29:39.992Z,2464
2017-07-31T04:34:54.427Z,2612
2017-07-31T04:35:04.581Z,2620
2017-07-31T04:40:15.689Z,2828
2017-07-31T04:40:25.848Z,2840
2017-07-31T04:40:35.700Z,2844
2017-07-31T04:40:45.844Z,2848
2017-07-31T04:40:55.432Z,2852
2017-07-31T04:46:06.677Z,3048
2017-07-31T04:51:13.068Z,3940
2017-07-31T04:51:22.357Z,3968
2017-07-31T04:51:32.505Z,4016
2017-07-31T04:51:42.688Z,4068
2017-07-31T04:56:54.110Z,5984
2017-07-31T04:57:04.284Z,6004
2017-07-31T05:02:20.840Z,6304
2017-07-31T05:02:30.989Z,6260
2017-07-31T05:07:37.384Z,7180
2017-07-31T05:07:47.245Z,7200
2017-07-31T05:07:57.420Z,7196
2017-07-31T05:08:07.569Z,7188
2017-07-31T05:08:17.432Z,7192
2017-07-31T05:08:27.284Z,7204
2017-07-31T05:08:37.443Z,7236
2017-07-31T05:08:47.320Z,7276
2017-07-31T05:08:57.473Z,7316
2017-07-31T05:09:07.637Z,7324
2017-07-31T05:09:17.788Z,7312
2017-07-31T05:09:27.948Z,7328
2017-07-31T05:09:38.100Z,7324
2017-07-31T05:09:48.268Z,7324
2017-07-31T05:15:05.608Z,6920
2017-07-31T05:25:28.533Z,8164
2017-07-31T05:30:46.049Z,9808
2017-07-31T05:30:55.933Z,9732
2017-07-31T05:31:06.076Z,9528
2017-07-31T05:31:16.241Z,9424
2017-07-31T05:31:26.389Z,9488
2017-07-31T05:31:36.521Z,9564
2017-07-31T05:31:46.409Z,9712
2017-07-31T05:31:56.569Z,9912
2017-07-31T05:37:12.469Z,12064
2017-07-31T05:42:32.505Z,13380
2017-07-31T05:42:42.665Z,13684
2017-07-31T05:47:56.020Z,14348
2017-07-31T05:48:05.893Z,14404
2017-07-31T05:48:16.045Z,14412
2017-07-31T05:48:25.909Z,14424
2017-07-31T05:48:35.776Z,14356
2017-07-31T05:48:45.641Z,14184
2017-07-31T05:48:55.797Z,13552
2017-07-31T05:59:11.941Z,17344
2017-07-31T05:59:21.795Z,17376
2017-07-31T05:59:31.681Z,17152
2017-07-31T05:59:41.841Z,16960
2017-07-31T06:04:53.206Z,18720
2017-07-31T06:05:02.804Z,18944
2017-07-31T06:15:25.460Z,19552
2017-07-31T06:15:35.621Z,20512
2017-07-31T06:15:45.497Z,21184
2017-07-31T06:15:55.373Z,21344
2017-07-31T06:16:05.236Z,21440
2017-07-31T06:16:15.097Z,21312
2017-07-31T06:16:25.241Z,19360
2017-07-31T06:16:35.404Z,17504
2017-07-31T06:16:45.277Z,16864
2017-07-31T06:21:58.989Z,20896
2017-07-31T06:22:09.148Z,20928
2017-07-31T06:27:20.269Z,24512
2017-07-31T06:27:30.422Z,22144
2017-07-31T06:27:40.574Z,20960
2017-07-31T06:27:50.445Z,21312
2017-07-31T06:28:00.328Z,21152
2017-07-31T06:28:09.893Z,21568
2017-07-31T06:28:20.061Z,22432
2017-07-31T06:28:30.229Z,22912
2017-07-31T06:28:40.377Z,23008
2017-07-31T06:28:50.229Z,22784
2017-07-31T06:29:00.372Z,23968
2017-07-31T06:29:09.981Z,24768
2017-07-31T06:29:20.141Z,23936
2017-07-31T06:29:30.005Z,23168
2017-07-31T06:29:39.585Z,22304
2017-07-31T06:34:58.145Z,21824
2017-07-31T06:35:08.309Z,20000
2017-07-31T06:45:31.265Z,25632
2017-07-31T06:50:31.333Z,29408
2017-07-31T06:50:41.163Z,31232
2017-07-31T06:50:51.001Z,32032
2017-07-31T06:51:01.121Z,32416
2017-07-31T06:51:11.231Z,31328
2017-07-31T06:51:21.354Z,31040
2017-07-31T06:51:31.513Z,31712
2017-07-31T06:51:41.634Z,30944
2017-07-31T06:51:51.767Z,33216
2017-07-31T06:52:01.611Z,33440
2017-07-31T06:52:11.437Z,32992
2017-07-31T06:52:21.270Z,33632
2017-07-31T06:52:31.399Z,32576
2017-07-31T06:52:40.946Z,32544
2017-07-31T06:52:50.797Z,31552
2017-07-31T06:53:00.638Z,31328
2017-07-31T06:53:10.766Z,30848
2017-07-31T06:53:20.903Z,30560
2017-07-31T06:53:31.026Z,30816
2017-07-31T06:53:41.150Z,32288
2017-07-31T06:53:50.975Z,32480
2017-07-31T06:54:00.811Z,33088
2017-07-31T06:54:10.933Z,34272
2017-07-31T06:54:21.062Z,34272
2017-07-31T06:54:31.194Z,33696
2017-07-31T06:54:40.748Z,33184
2017-07-31T06:54:50.610Z,32960
2017-07-31T06:55:00.746Z,33088
2017-07-31T06:55:10.862Z,34112
2017-07-31T06:55:20.969Z,34848
2017-07-31T06:55:30.816Z,34496
2017-07-31T06:55:40.941Z,34976
2017-07-31T06:55:51.051Z,35136
2017-07-31T06:56:01.172Z,35168
2017-07-31T06:56:11.295Z,36128
2017-07-31T06:56:21.428Z,36736
2017-07-31T06:56:31.551Z,37632
2017-07-31T06:56:41.676Z,37632
2017-07-31T06:56:51.790Z,36128
2017-07-31T06:57:01.340Z,36768
2017-07-31T06:57:11.458Z,37856
2017-07-31T06:57:21.603Z,37248
2017-07-31T06:57:31.729Z,37472
2017-07-31T06:57:41.585Z,36160
2017-07-31T06:57:51.150Z,36832
2017-07-31T06:58:00.990Z,35648
2017-07-31T06:58:10.808Z,35232
2017-07-31T06:58:20.925Z,34656
2017-07-31T06:58:31.051Z,34880
2017-07-31T06:58:40.881Z,37504
2017-07-31T06:58:50.710Z,37632
2017-07-31T06:59:00.560Z,38080
2017-07-31T06:59:10.399Z,38720
2017-07-31T06:59:20.525Z,38496
2017-07-31T06:59:30.363Z,39680
2017-07-31T06:59:40.193Z,38912
2017-07-31T06:59:50.049Z,37856
2017-07-31T07:00:00.178Z,37504
2017-07-31T07:00:09.739Z,36512
2017-07-31T07:00:19.862Z,34880
2017-07-31T07:00:29.986Z,33696
2017-07-31T07:00:39.824Z,33984
2017-07-31T07:00:49.659Z,34752
2017-07-31T07:00:59.544Z,36320
2017-07-31T07:01:09.695Z,36768
2017-07-31T07:01:19.827Z,37344
2017-07-31T07:01:29.945Z,36832
2017-07-31T07:01:39.774Z,35328
2017-07-31T07:01:49.898Z,36128
2017-07-31T07:02:00.023Z,38848
2017-07-31T07:02:10.155Z,38336
2017-07-31T07:02:20.289Z,40416
2017-07-31T07:02:30.404Z,39872
2017-07-31T07:02:40.543Z,39040
2017-07-31T07:02:50.103Z,38240
2017-07-31T07:03:00.231Z,37984
2017-07-31T07:03:10.353Z,35648
2017-07-31T07:03:20.486Z,34976
2017-07-31T07:03:30.609Z,36128
2017-07-31T07:03:40.172Z,35936
2017-07-31T07:03:50.016Z,35360
2017-07-31T07:04:00.174Z,34560
2017-07-31T07:04:09.998Z,34944
2017-07-31T07:04:20.133Z,35616
2017-07-31T07:04:29.690Z,37760
2017-07-31T07:04:39.531Z,40192
2017-07-31T07:04:49.658Z,41472
2017-07-31T07:04:59.483Z,40768
2017-07-31T07:05:09.630Z,39360
2017-07-31T07:05:19.772Z,37472
2017-07-31T07:05:29.917Z,34592
2017-07-31T07:05:40.059Z,32544
2017-07-31T07:05:49.618Z,31840
2017-07-31T07:05:59.442Z,31648
2017-07-31T07:06:08.994Z,32448
2017-07-31T07:06:19.143Z,31712
2017-07-31T07:06:29.277Z,33088
2017-07-31T07:06:39.428Z,34016
2017-07-31T07:06:49.302Z,35744
2017-07-31T07:06:59.436Z,36704
2017-07-31T07:07:09.564Z,34880
2017-07-31T07:07:19.698Z,34848
2017-07-31T07:07:29.846Z,34848
2017-07-31T07:07:39.387Z,37856
2017-07-31T07:07:49.204Z,36768
2017-07-31T07:07:58.738Z,37504
2017-07-31T07:08:08.573Z,37696
2017-07-31T07:08:18.715Z,37632
2017-07-31T07:08:28.545Z,36288
2017-07-31T07:08:38.104Z,35872
2017-07-31T07:08:48.233Z,35584
2017-07-31T07:08:58.056Z,39008
2017-07-31T07:09:08.182Z,39520
2017-07-31T07:09:18.330Z,39616
2017-07-31T07:09:28.162Z,38592
2017-07-31T07:09:38.281Z,37184
2017-07-31T07:09:48.113Z,36672
2017-07-31T07:09:57.952Z,37152
2017-07-31T07:10:07.791Z,37216
2017-07-31T07:10:17.912Z,38528
2017-07-31T07:10:27.755Z,38912
2017-07-31T07:10:37.894Z,38496
2017-07-31T07:10:47.755Z,38336
2017-07-31T07:10:57.894Z,37824
2017-07-31T07:11:07.734Z,39136
2017-07-31T07:11:17.854Z,39328
2017-07-31T07:11:27.983Z,39968
2017-07-31T07:11:38.107Z,37568
2017-07-31T07:11:47.669Z,37408
2017-07-31T07:11:57.788Z,36896
2017-07-31T07:12:07.067Z,37472
2017-07-31T07:12:16.611Z,38912
2017-07-31T07:12:26.471Z,38400
2017-07-31T07:12:36.605Z,38368
2017-07-31T07:12:46.155Z,37728
2017-07-31T07:12:56.288Z,36640
2017-07-31T07:13:06.120Z,36192
2017-07-31T07:13:15.960Z,39552
2017-07-31T07:13:26.097Z,39872
2017-07-31T07:13:36.214Z,39648
2017-07-31T07:13:45.749Z,39872
2017-07-31T07:13:54.728Z,39488
2017-07-31T07:14:04.284Z,38432
2017-07-31T07:14:13.821Z,38496
2017-07-31T07:14:23.943Z,39616
2017-07-31T07:14:34.063Z,40576
2017-07-31T07:14:44.198Z,40768
2017-07-31T07:14:54.038Z,39808
2017-07-31T07:15:04.173Z,39904
2017-07-31T07:15:14.019Z,39648
2017-07-31T07:15:24.158Z,38976
2017-07-31T07:15:34.279Z,38752
2017-07-31T07:15:44.388Z,39168
2017-07-31T07:15:54.228Z,39328
2017-07-31T07:16:04.066Z,37312
2017-07-31T07:16:13.622Z,36000
2017-07-31T07:16:23.751Z,35264
2017-07-31T07:16:33.892Z,36480
2017-07-31T07:16:43.728Z,37056
2017-07-31T07:16:53.550Z,36736
2017-07-31T07:17:03.392Z,37504
2017-07-31T07:17:13.232Z,37184
2017-07-31T07:17:23.366Z,37632
2017-07-31T07:17:33.518Z,38016
2017-07-31T07:17:43.644Z,38368
2017-07-31T07:17:53.756Z,38880
2017-07-31T07:18:03.332Z,39680
2017-07-31T07:18:13.186Z,40576
2017-07-31T07:18:23.321Z,40512
2017-07-31T07:18:33.165Z,39808
2017-07-31T07:18:43.314Z,38048
2017-07-31T07:18:53.456Z,37248
2017-07-31T07:19:03.586Z,37696
2017-07-31T07:19:13.714Z,36448
2017-07-31T07:19:23.826Z,37568
2017-07-31T07:19:33.673Z,39264
2017-07-31T07:19:43.805Z,39328
2017-07-31T07:19:53.643Z,39552
2017-07-31T07:20:02.918Z,38368
2017-07-31T07:20:13.042Z,39136
2017-07-31T07:20:23.162Z,39808
2017-07-31T07:20:33.008Z,39360
2017-07-31T07:20:43.143Z,39584
2017-07-31T07:20:52.962Z,37120
2017-07-31T07:21:03.067Z,38688
2017-07-31T07:21:12.901Z,39616
2017-07-31T07:21:23.029Z,40032
2017-07-31T07:21:33.153Z,43104
2017-07-31T07:21:43.291Z,43744
2017-07-31T07:21:53.408Z,45184
2017-07-31T07:22:03.530Z,44576
2017-07-31T07:22:13.378Z,43776
2017-07-31T07:22:23.512Z,44576
2017-07-31T07:22:33.642Z,44800
2017-07-31T07:22:43.771Z,46816
2017-07-31T07:22:53.891Z,46304
2017-07-31T07:23:04.013Z,45856
2017-07-31T07:23:13.857Z,46560
2017-07-31T07:23:23.690Z,47264
2017-07-31T07:23:33.526Z,47808
2017-07-31T07:23:43.665Z,46848
2017-07-31T07:23:53.515Z,45760
2017-07-31T07:24:03.618Z,47552
2017-07-31T07:24:13.457Z,46336
2017-07-31T07:24:23.585Z,46560
2017-07-31T07:24:33.423Z,45920
2017-07-31T07:24:43.549Z,45376
2017-07-31T07:24:53.689Z,45280
2017-07-31T07:25:03.552Z,45536
2017-07-31T07:25:13.673Z,45504
2017-07-31T07:25:23.516Z,45344
2017-07-31T07:25:33.351Z,45184
2017-07-31T07:25:43.465Z,46400
2017-07-31T07:25:53.580Z,45504
2017-07-31T07:26:03.431Z,43680
2017-07-31T07:26:13.548Z,42656
2017-07-31T07:26:23.691Z,42624
2017-07-31T07:26:33.820Z,43232
2017-07-31T07:26:43.668Z,42464
2017-07-31T07:26:53.208Z,42528
2017-07-31T07:27:03.336Z,42752
2017-07-31T07:27:12.894Z,43744
2017-07-31T07:27:22.729Z,43616
2017-07-31T07:27:32.584Z,44224
2017-07-31T07:27:42.699Z,44768
2017-07-31T07:27:52.538Z,45472
2017-07-31T07:28:02.679Z,45312
2017-07-31T07:28:12.790Z,45920
2017-07-31T07:28:22.943Z,46272
2017-07-31T07:28:33.079Z,45184
2017-07-31T07:28:43.215Z,45728
2017-07-31T07:28:53.333Z,45888
2017-07-31T07:29:03.442Z,46240
2017-07-31T07:29:13.578Z,46944
2017-07-31T07:29:23.703Z,47168
2017-07-31T07:29:33.841Z,46784
2017-07-31T07:29:43.682Z,46560
2017-07-31T07:29:53.818Z,47392
2017-07-31T07:30:03.662Z,47136
2017-07-31T07:30:13.783Z,47488
2017-07-31T07:30:23.622Z,46816
2017-07-31T07:30:33.470Z,46400
2017-07-31T07:30:43.315Z,45568
2017-07-31T07:30:53.442Z,46688
2017-07-31T07:31:03.586Z,44800
2017-07-31T07:31:13.442Z,45888
2017-07-31T07:31:23.566Z,43968
2017-07-31T07:31:33.411Z,44096
2017-07-31T07:31:43.558Z,44256
2017-07-31T07:31:53.405Z,44288
2017-07-31T07:32:03.247Z,43648
2017-07-31T07:32:12.804Z,43936
2017-07-31T07:32:22.636Z,45600
2017-07-31T07:32:32.765Z,45952
2017-07-31T07:32:42.890Z,45856
2017-07-31T07:32:53.007Z,45536
2017-07-31T07:33:02.850Z,45088
2017-07-31T07:33:12.959Z,46432
2017-07-31T07:33:23.097Z,45472
2017-07-31T07:33:32.343Z,46592
2017-07-31T07:33:42.181Z,46656
2017-07-31T07:33:52.301Z,45600
2017-07-31T07:34:02.133Z,45504
2017-07-31T07:34:11.680Z,44736
2017-07-31T07:34:21.518Z,44448
2017-07-31T07:34:31.646Z,43584
2017-07-31T07:34:41.766Z,42784
2017-07-31T07:34:51.602Z,42400
2017-07-31T07:35:01.482Z,41248
2017-07-31T07:35:11.609Z,40352
2017-07-31T07:35:21.170Z,40480
2017-07-31T07:35:31.296Z,40768
2017-07-31T07:35:41.133Z,41568
2017-07-31T07:35:51.264Z,41376
2017-07-31T07:36:01.384Z,42432
2017-07-31T07:36:11.513Z,43840
2017-07-31T07:36:21.634Z,44992
2017-07-31T07:36:31.171Z,44096
2017-07-31T07:36:41.003Z,42272
2017-07-31T07:36:51.124Z,43168
2017-07-31T07:37:01.252Z,42304
2017-07-31T07:37:11.384Z,42656
2017-07-31T07:37:21.511Z,43616
2017-07-31T07:37:31.076Z,45120
2017-07-31T07:37:41.212Z,45312
2017-07-31T07:37:50.765Z,46080
2017-07-31T07:38:00.614Z,47616
2017-07-31T07:38:10.734Z,49536
2017-07-31T07:38:20.866Z,50016
2017-07-31T07:38:30.986Z,49312
2017-07-31T07:38:41.127Z,50144
2017-07-31T07:38:51.256Z,49056
2017-07-31T07:39:00.800Z,49344
2017-07-31T07:39:10.909Z,48544
2017-07-31T07:39:21.044Z,44384
2017-07-31T07:39:31.180Z,47200
2017-07-31T07:39:41.313Z,47520
2017-07-31T07:39:51.476Z,46528
2017-07-31T07:40:01.291Z,47008
2017-07-31T07:40:11.406Z,47008
2017-07-31T07:40:21.526Z,47008
2017-07-31T07:40:31.366Z,47136
2017-07-31T07:40:41.489Z,45728
2017-07-31T07:40:51.624Z,43744
2017-07-31T07:41:01.477Z,41952
2017-07-31T07:41:11.592Z,41920
2017-07-31T07:41:21.424Z,44064
2017-07-31T07:41:31.268Z,43968
2017-07-31T07:41:41.396Z,44768
2017-07-31T07:41:51.531Z,46208
2017-07-31T07:42:01.386Z,46400
2017-07-31T07:42:11.516Z,45024
2017-07-31T07:42:21.675Z,45312
2017-07-31T07:42:31.804Z,46912
2017-07-31T07:42:41.926Z,46816
2017-07-31T07:42:51.765Z,44384
2017-07-31T07:43:01.886Z,44000
2017-07-31T07:43:12.000Z,45024
2017-07-31T07:43:21.839Z,44928
2017-07-31T07:43:31.675Z,45504
2017-07-31T07:43:41.811Z,44480
2017-07-31T07:43:51.651Z,43136
2017-07-31T07:44:01.193Z,43456
2017-07-31T07:44:11.309Z,41280
2017-07-31T07:44:21.143Z,40704
2017-07-31T07:44:30.967Z,40032
2017-07-31T07:44:40.792Z,40352
2017-07-31T07:44:50.922Z,38944
2017-07-31T07:45:01.050Z,37952
2017-07-31T07:45:10.894Z,39264
2017-07-31T07:45:20.734Z,39360
2017-07-31T07:45:30.285Z,39168
2017-07-31T07:45:40.414Z,38560
2017-07-31T07:45:50.540Z,40128
2017-07-31T07:46:00.661Z,39936
2017-07-31T07:46:10.503Z,39872
2017-07-31T07:46:20.340Z,40992
2017-07-31T07:46:30.470Z,42368
2017-07-31T07:46:40.608Z,42560
2017-07-31T07:46:50.443Z,42592
2017-07-31T07:47:00.578Z,42592
2017-07-31T07:47:10.418Z,43648
2017-07-31T07:47:20.249Z,44992
2017-07-31T07:47:30.097Z,44416
2017-07-31T07:47:39.656Z,43936
2017-07-31T07:47:49.488Z,43712
2017-07-31T07:47:59.330Z,47168
2017-07-31T07:48:09.163Z,50080
2017-07-31T07:48:19.272Z,49760
2017-07-31T07:48:28.526Z,49600
2017-07-31T07:48:38.362Z,49216
2017-07-31T07:48:48.527Z,47616
2017-07-31T07:48:58.354Z,48192
2017-07-31T07:49:07.901Z,48544
2017-07-31T07:49:18.023Z,48800
2017-07-31T07:49:28.140Z,50176
2017-07-31T07:49:38.263Z,50528
2017-07-31T07:49:48.105Z,50784
2017-07-31T07:49:57.937Z,51008
2017-07-31T07:50:08.065Z,51264
2017-07-31T07:50:17.906Z,51904
2017-07-31T07:50:28.031Z,53408
2017-07-31T07:50:37.293Z,54848
2017-07-31T07:50:47.135Z,54016
2017-07-31T07:50:56.985Z,54400
2017-07-31T07:51:07.115Z,54688
2017-07-31T07:51:17.248Z,54816
2017-07-31T07:51:27.089Z,55232
2017-07-31T07:51:36.644Z,55040
2017-07-31T07:51:46.193Z,55488
2017-07-31T07:51:56.319Z,55552
2017-07-31T07:52:06.461Z,54816
2017-07-31T07:52:16.577Z,54400
2017-07-31T07:52:26.130Z,54464
2017-07-31T07:52:35.670Z,54656
2017-07-31T07:52:45.806Z,54720
2017-07-31T07:52:55.943Z,55008
2017-07-31T07:53:05.768Z,54592
2017-07-31T07:53:15.610Z,54464
2017-07-31T07:53:25.445Z,54976
2017-07-31T07:53:35.567Z,54432
2017-07-31T07:53:45.402Z,53824
2017-07-31T07:53:55.252Z,55264
2017-07-31T07:54:05.084Z,55872
2017-07-31T07:54:14.625Z,55584
2017-07-31T07:54:23.885Z,54688
2017-07-31T07:54:34.022Z,53920
2017-07-31T07:54:44.152Z,54784
2017-07-31T07:54:53.992Z,57312
2017-07-31T07:55:03.834Z,57408
2017-07-31T07:55:13.963Z,57728
2017-07-31T07:55:24.085Z,58016
2017-07-31T07:55:33.914Z,57504
2017-07-31T07:55:43.762Z,57536
2017-07-31T07:55:53.885Z,57696
2017-07-31T07:56:03.740Z,57504
2017-07-31T07:56:12.997Z,57536
2017-07-31T07:56:23.121Z,56640
2017-07-31T07:56:32.984Z,56544
2017-07-31T07:56:43.117Z,55840
2017-07-31T07:56:52.965Z,55872
2017-07-31T07:57:03.086Z,56224
2017-07-31T07:57:13.210Z,56480
2017-07-31T07:57:23.049Z,56128
2017-07-31T07:57:33.175Z,56224
2017-07-31T07:57:42.994Z,56512
2017-07-31T07:57:53.116Z,56512
2017-07-31T07:58:02.948Z,56768
2017-07-31T07:58:13.076Z,57280
2017-07-31T07:58:23.192Z,57472
2017-07-31T07:58:33.043Z,57312
2017-07-31T07:58:43.156Z,56992
2017-07-31T07:58:52.129Z,56768
2017-07-31T07:59:01.966Z,56576
2017-07-31T07:59:11.805Z,56896
2017-07-31T07:59:21.955Z,56576
2017-07-31T07:59:31.814Z,57216
2017-07-31T07:59:41.939Z,55264
2017-07-31T07:59:51.488Z,55136
2017-07-31T08:00:01.333Z,54496
2017-07-31T08:00:11.461Z,54944
2017-07-31T08:00:21.294Z,55968
2017-07-31T08:00:31.428Z,55328
2017-07-31T08:00:41.274Z,54560
2017-07-31T08:00:51.113Z,54368
2017-07-31T08:01:00.665Z,54208
2017-07-31T08:01:10.799Z,54496
2017-07-31T08:01:20.959Z,54976
2017-07-31T08:01:30.800Z,54624
2017-07-31T08:01:40.622Z,55104
2017-07-31T08:01:50.192Z,54880
2017-07-31T08:02:00.322Z,55648
2017-07-31T08:02:10.453Z,55616
2017-07-31T08:02:20.593Z,55296
2017-07-31T08:02:30.705Z,55008
2017-07-31T08:02:40.537Z,55232
2017-07-31T08:02:50.656Z,54400
2017-07-31T08:03:00.776Z,54752
2017-07-31T08:03:10.899Z,56256
2017-07-31T08:03:21.008Z,56832
2017-07-31T08:03:31.156Z,57440
2017-07-31T08:03:41.288Z,57664
2017-07-31T08:03:51.405Z,58208
2017-07-31T08:04:00.963Z,59872
2017-07-31T08:04:10.792Z,60768
2017-07-31T08:04:20.922Z,60992
2017-07-31T08:04:31.053Z,61536
2017-07-31T08:04:41.166Z,61088
2017-07-31T08:04:51.294Z,61472
2017-07-31T08:05:01.423Z,61536
2017-07-31T08:05:10.983Z,60800
2017-07-31T08:05:21.127Z,61248
2017-07-31T08:05:31.245Z,61024
2017-07-31T08:05:41.361Z,58496
2017-07-31T08:05:51.490Z,58624
2017-07-31T08:06:01.625Z,58176
2017-07-31T08:06:11.469Z,57536
2017-07-31T08:06:21.601Z,58464
2017-07-31T08:06:31.732Z,57600
2017-07-31T08:06:41.854Z,57184
2017-07-31T08:06:51.975Z,55744
2017-07-31T08:07:02.101Z,53152
2017-07-31T08:07:12.229Z,52896
2017-07-31T08:07:22.348Z,49120
2017-07-31T08:07:32.473Z,53504
2017-07-31T08:07:42.596Z,55392
2017-07-31T08:07:52.722Z,57152
2017-07-31T08:08:02.564Z,53888
2017-07-31T08:08:12.397Z,55904
2017-07-31T08:08:22.529Z,57056
2017-07-31T08:08:32.366Z,56256
2017-07-31T08:08:42.488Z,55104
2017-07-31T08:08:52.331Z,57312
2017-07-31T08:09:02.177Z,57184
2017-07-31T08:09:12.014Z,60096
2017-07-31T08:09:21.850Z,61248
2017-07-31T08:09:31.972Z,63872
2017-07-31T08:09:42.102Z,58688
2017-07-31T08:09:52.220Z,60064